Nyala, Nevada Weather observations

Data are for observation ending at time listed.
 Day   Time    Ave.   Ave.  Ave.  Vector   Max.   Stn.    Total    Solar   Ave.  
  of    of     Air    Rel.  Wind   Wind    Wind   Baro.  Precip.   Rad.    Soil  
Year   Day     Temp.  Hum.  Speed  Dir.    Gust   Pres.                    Temp. 
2016   (PST)    F      %     mph   deg.    mph     mb.     in.     W/m2     F   
------------------------------------------------------------------------------
 344    1:00   23.0    51    2.2   142      5.0    857     0.00       0    31.5
 344    2:00   24.2    50    1.5   136      3.8    857     0.00       0    30.8
 344    3:00   24.8    52    2.5   140      6.4    858     0.00       0    30.2
 344    4:00   20.4    51    1.6    70      4.9    858     0.00       0    29.8
 344    5:00   21.0    53    1.4   137      3.1    858     0.00       0    29.5
 344    6:00   20.3    58    1.5   211      4.8    858     0.00       0    29.1
 344    7:00   20.7    55    0.9   257      4.1    858     0.00       0    28.9
 344    8:00   22.2    55    0.5    47      2.6    858     0.00      15    28.7
 344    9:00   27.0    43    1.3   295      5.0    858     0.00      59    28.8
 344   10:00   30.6    39    1.2   217      4.5    859     0.00      57    29.3
 344   11:00   34.3    35    1.1   262      3.9    859     0.00      71    30.1
 344   12:00   35.8    33    1.3   357      3.8    859     0.00      79    31.1
 344   13:00   42.6    27    1.4     6      4.7    858     0.00     218    32.1
 344   14:00   45.7    27    1.7   264      4.0    857     0.00     172    34.3
 344   15:00   45.9    28    0.9   314      3.2    857     0.00      86    35.7
 344   16:00   44.2    30    0.5   249      2.6    856     0.00      36    36.0
 344   17:00   39.1    34    1.6   104      4.5    856     0.00       2    36.0
 344   18:00   34.9    42    1.8   149      4.4    856     0.00       0    35.6
 344   19:00   33.3    49    3.0   175      6.4    856     0.00       0    35.0
 344   20:00   29.2    57    4.2   167      6.2    856     0.00       0    34.4
 344   21:00   28.3    61    2.6   142      5.1    856     0.00       0    33.7
 344   22:00   27.7    67    2.0   139      5.6    856     0.00       0    33.0
 344   23:00   27.4    69    1.4   110      3.4    856     0.00       0    32.3
 345    0:00   23.2    73    1.7   131      4.8    856     0.00       0    31.7

Return to Nyala, Nevada graphs page.


Western Regional Climate Center,wrcc@dri.edu